Time;durP1;ratioP1;P1;durP2;ratioP2;P2;SDS_P1;SDS_P2;PMS_P1;PMS_P2;Temp;Humidity;BMP_temperature;BMP_pressure;BME280_temperature;BME280_humidity;BME280_pressure;Samples;Min_cycle;Max_cycle;Signal;HPM_P1;HPM_P2
2021/10/14 00:00:35;;;;;;;1.25;1.02;;;10.20;71.70;;;;;;5082260;28;20398;-76
2021/10/14 00:03:01;;;;;;;2.97;1.60;;;10.10;71.70;;;;;;5060730;28;20089;-76
2021/10/14 00:05:26;;;;;;;2.33;1.30;;;10.10;71.90;;;;;;5072177;28;20486;-76
2021/10/14 00:07:52;;;;;;;1.85;1.17;;;10.10;71.60;;;;;;5073048;28;20063;-76
2021/10/14 00:10:18;;;;;;;1.73;1.20;;;10.10;71.00;;;;;;5071464;28;20021;-76
2021/10/14 00:12:43;;;;;;;1.92;1.40;;;10.20;70.30;;;;;;5068757;28;20032;-76
2021/10/14 00:15:09;;;;;;;3.97;1.33;;;10.20;70.20;;;;;;5069412;28;20082;-75
2021/10/14 00:17:35;;;;;;;1.55;1.20;;;10.20;69.80;;;;;;5070324;28;20521;-75
2021/10/14 00:20:01;;;;;;;1.25;1.15;;;10.30;69.20;;;;;;5071997;28;20036;-75
2021/10/14 00:22:27;;;;;;;3.38;1.23;;;10.30;69.30;;;;;;5072251;28;21668;-76
2021/10/14 00:24:53;;;;;;;1.55;1.10;;;10.30;69.30;;;;;;5070555;28;20043;-76
2021/10/14 00:27:18;;;;;;;2.17;1.13;;;10.20;69.10;;;;;;5072651;28;20502;-75
2021/10/14 00:29:44;;;;;;;1.13;0.88;;;10.20;68.80;;;;;;5072295;28;20031;-75
2021/10/14 00:32:10;;;;;;;1.67;1.20;;;10.30;68.60;;;;;;5072792;28;20113;-75
2021/10/14 00:34:35;;;;;;;1.10;1.00;;;10.20;69.10;;;;;;5071454;28;20031;-75
2021/10/14 00:37:01;;;;;;;2.00;1.27;;;10.20;69.00;;;;;;5072138;28;20643;-75
2021/10/14 00:39:27;;;;;;;2.15;1.27;;;10.20;69.00;;;;;;5071654;28;20051;-75
2021/10/14 00:41:52;;;;;;;2.45;1.20;;;10.10;69.20;;;;;;5072665;28;20024;-75
2021/10/14 00:44:18;;;;;;;2.88;1.20;;;10.10;69.60;;;;;;5070721;28;20051;-75
2021/10/14 00:46:55;;;;;;;1.38;0.80;;;10.10;68.60;;;;;;5072359;28;20090;-75
2021/10/14 00:49:22;;;;;;;1.10;1.00;;;10.20;68.00;;;;;;5072000;28;20021;-75
2021/10/14 00:51:47;;;;;;;2.28;1.10;;;10.20;68.60;;;;;;5071598;28;20032;-76
2021/10/14 00:54:19;;;;;;;1.30;1.00;;;10.20;68.20;;;;;;5071267;28;20021;-76
2021/10/14 00:56:45;;;;;;;1.03;0.90;;;10.30;67.40;;;;;;5070785;28;20112;-76
2021/10/14 00:59:12;;;;;;;1.60;0.95;;;10.30;67.40;;;;;;5071436;28;20067;-75
2021/10/14 01:01:38;;;;;;;1.83;1.00;;;10.30;66.80;;;;;;5070831;28;20031;-76
2021/10/14 01:04:05;;;;;;;1.52;0.80;;;10.40;67.10;;;;;;5071696;28;20104;-75
2021/10/14 01:06:31;;;;;;;0.90;0.80;;;10.40;67.20;;;;;;5072239;28;20070;-75
2021/10/14 01:08:58;;;;;;;0.80;0.80;;;10.30;68.30;;;;;;5070464;28;20108;-75
2021/10/14 01:11:24;;;;;;;1.23;1.10;;;10.30;67.90;;;;;;5071794;28;20062;-75
2021/10/14 01:13:50;;;;;;;1.63;1.27;;;10.20;68.80;;;;;;5065729;28;20048;-75
2021/10/14 01:16:16;;;;;;;1.83;1.42;;;10.10;68.90;;;;;;5071921;28;20576;-75
2021/10/14 01:18:42;;;;;;;1.65;1.00;;;10.10;69.50;;;;;;5071221;28;20029;-75
2021/10/14 01:21:07;;;;;;;2.75;1.27;;;10.00;70.20;;;;;;5072091;28;20471;-75
2021/10/14 01:23:33;;;;;;;1.40;1.27;;;10.00;70.40;;;;;;5070755;28;20479;-75
2021/10/14 01:25:59;;;;;;;1.55;1.20;;;10.00;70.70;;;;;;5071404;28;20463;-75
2021/10/14 01:28:25;;;;;;;2.40;1.10;;;10.00;71.00;;;;;;5071697;28;20130;-75
2021/10/14 01:30:50;;;;;;;1.42;1.17;;;10.00;71.40;;;;;;5070307;28;20024;-75
2021/10/14 01:33:17;;;;;;;2.70;0.85;;;9.90;71.10;;;;;;5069570;28;20467;-75
2021/10/14 01:35:43;;;;;;;1.98;1.20;;;9.90;71.30;;;;;;5069832;28;20025;-75
2021/10/14 01:38:09;;;;;;;1.25;1.15;;;9.90;71.30;;;;;;5070792;28;20020;-75
2021/10/14 01:40:35;;;;;;;1.40;1.30;;;9.90;71.40;;;;;;5071242;28;20449;-75
2021/10/14 01:43:01;;;;;;;1.65;1.20;;;9.90;70.80;;;;;;5070886;28;20371;-75
2021/10/14 01:45:26;;;;;;;1.42;1.33;;;9.90;70.80;;;;;;5071197;28;20024;-76
2021/10/14 01:47:52;;;;;;;4.05;1.27;;;10.00;71.00;;;;;;5070955;28;20040;-75
2021/10/14 01:50:18;;;;;;;2.20;1.38;;;9.90;70.60;;;;;;5071266;28;20047;-75
2021/10/14 01:52:43;;;;;;;1.52;1.10;;;10.00;70.50;;;;;;5071345;28;20020;-75
2021/10/14 01:55:09;;;;;;;2.03;1.35;;;10.00;70.40;;;;;;5070554;28;20033;-75
2021/10/14 01:57:35;;;;;;;1.95;1.40;;;9.90;70.40;;;;;;5070907;28;20505;-75
2021/10/14 02:00:00;;;;;;;1.45;0.95;;;9.90;70.70;;;;;;5071090;28;20037;-75
2021/10/14 02:02:26;;;;;;;2.40;1.27;;;9.90;71.20;;;;;;5069570;28;20390;-75
2021/10/14 02:04:52;;;;;;;1.92;1.23;;;9.80;71.40;;;;;;5071089;28;20024;-75
2021/10/14 02:07:18;;;;;;;1.15;0.93;;;9.80;71.60;;;;;;5070992;28;20035;-75
2021/10/14 02:09:43;;;;;;;1.48;1.20;;;9.80;71.10;;;;;;5069451;28;20098;-75
2021/10/14 02:12:09;;;;;;;1.27;1.08;;;9.70;71.60;;;;;;5070471;28;20035;-75
2021/10/14 02:14:35;;;;;;;1.52;1.30;;;9.70;71.90;;;;;;5069522;28;20035;-75
2021/10/14 02:17:00;;;;;;;1.58;1.10;;;9.60;71.30;;;;;;5071141;28;20020;-75
2021/10/14 02:19:26;;;;;;;1.15;1.05;;;9.60;71.40;;;;;;5070468;28;20036;-76
2021/10/14 02:21:52;;;;;;;1.67;1.05;;;9.60;71.50;;;;;;5071272;28;20025;-76
2021/10/14 02:24:17;;;;;;;0.82;0.82;;;9.50;71.50;;;;;;5071024;28;20368;-75
2021/10/14 02:26:43;;;;;;;1.83;1.10;;;9.50;71.00;;;;;;5071254;28;20099;-75
2021/10/14 02:29:12;;;;;;;2.00;1.10;;;9.50;70.10;;;;;;5072561;28;20494;-75
2021/10/14 02:31:39;;;;;;;1.13;0.98;;;9.60;69.80;;;;;;5075153;28;20081;-75
2021/10/14 02:34:05;;;;;;;1.58;1.10;;;9.60;69.40;;;;;;5073158;28;20032;-75
2021/10/14 02:36:31;;;;;;;1.02;1.00;;;9.70;69.70;;;;;;5073966;28;20029;-75
2021/10/14 02:38:56;;;;;;;1.02;0.93;;;9.80;69.10;;;;;;5073154;28;20029;-75
2021/10/14 02:41:22;;;;;;;1.83;1.10;;;9.80;69.10;;;;;;5074034;28;20479;-75
2021/10/14 02:43:48;;;;;;;1.13;1.00;;;9.80;69.10;;;;;;5073612;28;20483;-75
2021/10/14 02:46:13;;;;;;;1.00;0.90;;;9.90;69.40;;;;;;5074034;28;20613;-75
2021/10/14 02:48:39;;;;;;;1.00;1.00;;;9.90;69.00;;;;;;5073957;28;20033;-75
2021/10/14 02:51:05;;;;;;;1.30;1.00;;;9.90;68.80;;;;;;5073542;28;20557;-75
2021/10/14 02:53:31;;;;;;;1.23;0.93;;;9.90;68.90;;;;;;5074059;28;20086;-75
2021/10/14 02:55:56;;;;;;;1.20;1.10;;;10.00;68.90;;;;;;5074132;28;20081;-75
2021/10/14 02:58:22;;;;;;;1.35;0.90;;;9.90;69.10;;;;;;5074496;28;20028;-75
2021/10/14 03:00:48;;;;;;;1.00;0.90;;;9.90;69.20;;;;;;5073744;28;20032;-75
2021/10/14 03:03:13;;;;;;;2.08;1.30;;;9.80;68.90;;;;;;5072753;28;20031;-75
2021/10/14 03:05:39;;;;;;;1.00;0.90;;;9.90;69.10;;;;;;5052618;28;20071;-75
2021/10/14 03:08:05;;;;;;;1.33;0.98;;;9.90;68.90;;;;;;5073755;28;20078;-76
2021/10/14 03:10:31;;;;;;;1.33;1.10;;;9.90;68.90;;;;;;5072514;28;20024;-75
2021/10/14 03:12:56;;;;;;;1.13;1.05;;;9.80;68.90;;;;;;5073716;28;20016;-75
2021/10/14 03:15:22;;;;;;;1.30;1.20;;;9.80;69.70;;;;;;5071903;28;20041;-75
2021/10/14 03:17:48;;;;;;;3.00;0.90;;;9.70;69.90;;;;;;5074171;28;20034;-75
2021/10/14 03:20:13;;;;;;;0.88;0.88;;;9.70;69.80;;;;;;5072658;28;20098;-75
2021/10/14 03:22:39;;;;;;;1.02;0.93;;;9.70;70.20;;;;;;5073395;28;20059;-75
2021/10/14 03:25:07;;;;;;;1.65;0.90;;;9.70;70.20;;;;;;5072687;28;20024;-75
2021/10/14 03:27:32;;;;;;;3.00;1.00;;;9.60;69.90;;;;;;5072660;28;20020;-75
2021/10/14 03:29:58;;;;;;;1.00;0.88;;;9.60;70.30;;;;;;5072567;28;20021;-75
2021/10/14 03:32:24;;;;;;;1.08;0.98;;;9.60;70.10;;;;;;5073762;28;20025;-75
2021/10/14 03:34:49;;;;;;;2.05;1.05;;;9.60;70.10;;;;;;5073875;28;20028;-75
2021/10/14 03:37:15;;;;;;;1.60;1.00;;;9.60;69.90;;;;;;5071874;28;20395;-75
2021/10/14 03:39:41;;;;;;;1.23;0.77;;;9.60;69.10;;;;;;5073150;28;20029;-75
2021/10/14 03:42:07;;;;;;;2.00;0.70;;;9.60;69.80;;;;;;5073441;28;20463;-75
2021/10/14 03:44:32;;;;;;;1.90;1.05;;;9.70;68.90;;;;;;5072471;28;20029;-75
2021/10/14 03:46:58;;;;;;;3.25;0.95;;;9.60;69.40;;;;;;5073558;28;20052;-75
2021/10/14 03:49:24;;;;;;;2.13;1.10;;;9.70;68.90;;;;;;5073085;28;20054;-76
2021/10/14 03:51:49;;;;;;;1.20;1.02;;;9.60;69.10;;;;;;5072767;28;20048;-75
2021/10/14 03:54:15;;;;;;;0.80;0.80;;;9.70;68.60;;;;;;5072029;28;20121;-75
2021/10/14 03:56:41;;;;;;;1.00;0.90;;;9.70;69.20;;;;;;5072386;28;20489;-75
2021/10/14 03:59:06;;;;;;;0.95;0.82;;;9.60;69.10;;;;;;5072986;28;20043;-75
2021/10/14 04:01:32;;;;;;;1.10;1.00;;;9.70;69.30;;;;;;5073709;28;20391;-75
2021/10/14 04:03:58;;;;;;;0.95;0.95;;;9.60;69.20;;;;;;5072695;28;20024;-75
2021/10/14 04:06:23;;;;;;;1.83;0.95;;;9.60;68.60;;;;;;5073396;28;20020;-75
2021/10/14 04:08:49;;;;;;;1.20;0.95;;;9.70;69.00;;;;;;5072645;28;20078;-75
2021/10/14 04:11:15;;;;;;;0.88;0.80;;;9.60;68.90;;;;;;5073187;28;20450;-75
2021/10/14 04:13:42;;;;;;;1.08;0.90;;;9.70;69.10;;;;;;5072745;28;20082;-75
2021/10/14 04:16:08;;;;;;;1.27;0.90;;;9.60;68.70;;;;;;5073169;28;20116;-75
2021/10/14 04:18:36;;;;;;;1.00;1.00;;;9.60;68.60;;;;;;5070760;28;20119;-75
2021/10/14 04:21:03;;;;;;;1.45;0.98;;;9.60;68.50;;;;;;5071561;28;20028;-75
2021/10/14 04:23:28;;;;;;;1.00;0.93;;;9.60;68.50;;;;;;5072376;28;20024;-75
2021/10/14 04:25:54;;;;;;;0.90;0.70;;;9.60;68.20;;;;;;5072631;28;20028;-75
2021/10/14 04:28:20;;;;;;;1.00;0.77;;;9.70;68.00;;;;;;5072851;28;20070;-74
2021/10/14 04:30:47;;;;;;;0.68;0.68;;;9.70;68.10;;;;;;5072412;28;20024;-74
2021/10/14 04:33:13;;;;;;;6.18;1.08;;;9.70;67.90;;;;;;5072887;28;20033;-75
2021/10/14 04:35:38;;;;;;;1.05;0.70;;;9.70;68.80;;;;;;5072749;28;20077;-75
2021/10/14 04:38:04;;;;;;;1.08;0.90;;;9.70;68.30;;;;;;5072462;28;20020;-75
2021/10/14 04:40:31;;;;;;;0.85;0.85;;;9.60;68.70;;;;;;5071814;28;20032;-75
2021/10/14 04:42:57;;;;;;;1.48;1.10;;;9.60;69.20;;;;;;5072507;28;20099;-75
2021/10/14 04:45:23;;;;;;;1.10;1.00;;;9.50;69.70;;;;;;5072402;28;20105;-75
2021/10/14 04:47:49;;;;;;;0.80;0.80;;;9.50;69.10;;;;;;5068663;28;20127;-75
2021/10/14 04:50:15;;;;;;;1.00;0.90;;;9.50;69.00;;;;;;5070541;28;20490;-75
2021/10/14 04:52:41;;;;;;;1.17;0.93;;;9.50;69.20;;;;;;5069571;28;20024;-75
2021/10/14 04:55:07;;;;;;;1.67;0.80;;;9.50;69.50;;;;;;5068902;28;20021;-75
2021/10/14 04:57:33;;;;;;;1.30;0.90;;;9.50;69.40;;;;;;5070612;28;20013;-74
2021/10/14 04:59:59;;;;;;;1.63;0.98;;;9.50;69.30;;;;;;5069821;28;20044;-75
2021/10/14 05:02:25;;;;;;;1.00;0.90;;;9.50;69.20;;;;;;5069885;28;20052;-75
2021/10/14 05:04:50;;;;;;;0.95;0.88;;;9.60;68.80;;;;;;5071901;28;20031;-75
2021/10/14 05:07:16;;;;;;;1.00;0.80;;;9.60;68.80;;;;;;5071897;28;20103;-75
2021/10/14 05:09:42;;;;;;;0.80;0.80;;;9.60;69.40;;;;;;5071343;28;20032;-75
2021/10/14 05:12:08;;;;;;;3.67;1.30;;;9.50;69.10;;;;;;5070988;28;20025;-75
2021/10/14 05:14:33;;;;;;;1.05;0.82;;;9.50;69.50;;;;;;5071109;28;20032;-76
2021/10/14 05:16:59;;;;;;;1.17;1.00;;;9.50;69.90;;;;;;5070204;28;20033;-76
2021/10/14 05:19:25;;;;;;;1.23;0.90;;;9.40;70.20;;;;;;5068702;28;20024;-75
2021/10/14 05:21:53;;;;;;;1.13;0.80;;;9.40;70.30;;;;;;5070196;28;20021;-76
2021/10/14 05:24:20;;;;;;;1.60;0.77;;;9.40;70.70;;;;;;5068386;28;20563;-76
2021/10/14 05:26:46;;;;;;;1.15;0.93;;;9.30;70.70;;;;;;5069411;28;20077;-75
2021/10/14 05:29:11;;;;;;;0.98;0.80;;;9.20;71.00;;;;;;5067836;28;20111;-75
2021/10/14 05:31:37;;;;;;;1.15;0.90;;;9.20;71.20;;;;;;5071423;28;20031;-75
2021/10/14 05:34:04;;;;;;;1.40;1.00;;;9.20;71.40;;;;;;5069883;28;20024;-75
2021/10/14 05:36:30;;;;;;;1.00;0.90;;;9.20;71.90;;;;;;5071696;28;20021;-75
2021/10/14 05:38:56;;;;;;;1.58;1.13;;;9.10;71.70;;;;;;5069542;28;20540;-75
2021/10/14 05:41:21;;;;;;;1.05;0.95;;;9.10;71.90;;;;;;5071665;28;20390;-77
2021/10/14 05:43:47;;;;;;;2.67;1.20;;;9.20;71.90;;;;;;5070851;28;21758;-79
2021/10/14 05:46:13;;;;;;;1.58;0.90;;;9.10;72.20;;;;;;5071281;28;20574;-77
2021/10/14 05:48:38;;;;;;;2.10;1.33;;;9.20;72.00;;;;;;5069344;28;20032;-77
2021/10/14 05:51:04;;;;;;;6.05;0.95;;;9.20;72.60;;;;;;5071431;28;20027;-75
2021/10/14 05:53:30;;;;;;;1.30;1.10;;;9.20;72.30;;;;;;5070106;28;20515;-76
2021/10/14 05:55:57;;;;;;;5.28;1.15;;;9.20;72.30;;;;;;5069728;28;20490;-75
2021/10/14 05:58:22;;;;;;;1.33;1.00;;;9.30;72.60;;;;;;5068845;28;20168;-76
2021/10/14 06:00:48;;;;;;;2.67;1.15;;;9.40;72.20;;;;;;5066611;28;20728;-78
2021/10/14 06:03:14;;;;;;;5.45;1.60;;;9.40;71.60;;;;;;5065484;28;20483;-77
2021/10/14 06:05:40;;;;;;;1.70;1.10;;;9.50;71.30;;;;;;5066670;28;20119;-79
2021/10/14 06:08:06;;;;;;;1.40;1.08;;;9.70;70.90;;;;;;5068888;28;20020;-76
2021/10/14 06:10:32;;;;;;;2.60;0.90;;;9.80;70.60;;;;;;5067888;28;20024;-78
2021/10/14 06:12:58;;;;;;;1.42;1.13;;;9.90;70.50;;;;;;5064905;28;20021;-77
2021/10/14 06:15:24;;;;;;;1.20;1.00;;;9.90;70.20;;;;;;5066268;28;20461;-79
2021/10/14 06:17:50;;;;;;;3.05;1.23;;;9.90;70.10;;;;;;5068411;28;20135;-87
2021/10/14 06:20:16;;;;;;;4.72;1.45;;;10.00;70.10;;;;;;5068329;28;20056;-79
2021/10/14 06:22:42;;;;;;;1.80;1.08;;;10.10;70.40;;;;;;5066779;28;20017;-75
2021/10/14 06:25:08;;;;;;;1.70;0.88;;;10.10;70.80;;;;;;5069877;28;20032;-76
2021/10/14 06:27:34;;;;;;;1.48;0.93;;;10.10;70.70;;;;;;5070676;28;20013;-76
2021/10/14 06:29:59;;;;;;;1.00;0.80;;;10.20;70.00;;;;;;5070562;28;20036;-76
2021/10/14 06:32:26;;;;;;;0.85;0.68;;;10.30;71.10;;;;;;5069655;28;20150;-75
2021/10/14 06:34:53;;;;;;;1.67;1.10;;;10.40;69.10;;;;;;5070253;28;20037;-76
2021/10/14 06:37:18;;;;;;;1.77;1.08;;;10.60;70.30;;;;;;5070410;28;20040;-75
2021/10/14 06:39:44;;;;;;;1.60;1.02;;;10.60;68.80;;;;;;5069517;28;21548;-75
2021/10/14 06:42:10;;;;;;;1.10;0.98;;;10.70;68.10;;;;;;5069722;28;20021;-75
2021/10/14 06:44:36;;;;;;;0.80;0.80;;;10.80;68.40;;;;;;5070120;28;20394;-75
2021/10/14 06:47:01;;;;;;;1.05;0.70;;;11.00;68.10;;;;;;5069404;28;20051;-75
2021/10/14 06:49:27;;;;;;;4.13;0.80;;;11.10;67.70;;;;;;5066712;28;20519;-75
2021/10/14 06:51:55;;;;;;;4.00;0.90;;;11.20;67.40;;;;;;5062572;28;20109;-75
2021/10/14 06:54:21;;;;;;;16.98;1.33;;;11.30;67.30;;;;;;5067165;28;20024;-75
2021/10/14 06:56:47;;;;;;;0.88;0.80;;;11.30;67.90;;;;;;5070543;28;20099;-75
2021/10/14 06:59:13;;;;;;;1.13;0.77;;;11.40;65.90;;;;;;5068576;28;20051;-77
2021/10/14 07:01:38;;;;;;;1.60;1.00;;;11.50;66.00;;;;;;5069518;28;20029;-78
2021/10/14 07:04:04;;;;;;;0.95;0.90;;;11.50;66.70;;;;;;5071843;28;20025;-75
2021/10/14 07:06:30;;;;;;;2.10;1.00;;;11.50;65.90;;;;;;5075787;28;20028;-77
2021/10/14 07:08:55;;;;;;;1.17;0.90;;;11.60;65.80;;;;;;5070421;28;20020;-80
2021/10/14 07:11:22;;;;;;;1.77;1.00;;;11.70;66.70;;;;;;5069290;28;20036;-75
2021/10/14 07:13:47;;;;;;;1.73;1.10;;;11.70;66.70;;;;;;5069833;28;20020;-76
2021/10/14 07:16:13;;;;;;;1.00;1.00;;;11.80;65.00;;;;;;5074195;28;20017;-78
2021/10/14 07:18:39;;;;;;;1.27;1.02;;;11.90;66.00;;;;;;5073565;28;20028;-78
2021/10/14 07:21:07;;;;;;;1.52;0.90;;;11.90;66.00;;;;;;5072410;28;20032;-77
2021/10/14 07:23:32;;;;;;;2.53;1.10;;;12.00;66.80;;;;;;5074573;28;20158;-76
2021/10/14 07:25:58;;;;;;;2.47;1.20;;;12.00;67.10;;;;;;5072149;28;20107;-77
2021/10/14 07:28:24;;;;;;;3.47;1.17;;;12.10;67.40;;;;;;5073506;28;20029;-76
2021/10/14 07:30:52;;;;;;;3.97;1.13;;;12.10;67.50;;;;;;5072389;28;20113;-76
2021/10/14 07:33:18;;;;;;;1.65;1.15;;;12.10;68.30;;;;;;5072628;28;20012;-76
2021/10/14 07:35:43;;;;;;;1.90;1.40;;;12.10;66.80;;;;;;5072516;28;20119;-76
2021/10/14 07:38:12;;;;;;;1.70;1.30;;;12.10;66.70;;;;;;5073516;28;20029;-78
2021/10/14 07:40:41;;;;;;;2.50;0.80;;;12.20;67.90;;;;;;5069402;28;20044;-77
2021/10/14 07:43:09;;;;;;;1.33;0.90;;;12.20;67.70;;;;;;5062873;28;20032;-76
2021/10/14 07:45:35;;;;;;;2.30;0.90;;;12.20;65.30;;;;;;5068021;28;20033;-76
2021/10/14 07:48:01;;;;;;;1.92;1.13;;;12.30;66.10;;;;;;5069383;28;20132;-76
2021/10/14 07:50:27;;;;;;;1.58;1.02;;;12.30;66.20;;;;;;5072618;28;20179;-76
2021/10/14 07:52:52;;;;;;;1.15;0.90;;;12.30;67.50;;;;;;5071565;28;20025;-75
2021/10/14 07:55:18;;;;;;;3.40;1.00;;;12.30;66.40;;;;;;5067023;28;20017;-76
2021/10/14 07:57:44;;;;;;;1.10;0.90;;;12.30;67.10;;;;;;5069534;28;20051;-77
2021/10/14 08:00:11;;;;;;;0.98;0.88;;;12.40;65.80;;;;;;5068619;28;20037;-77
2021/10/14 08:02:36;;;;;;;1.00;1.00;;;12.50;66.80;;;;;;5057246;28;20019;-78
2021/10/14 08:05:03;;;;;;;1.10;1.00;;;12.60;68.60;;;;;;5059171;28;20058;-78
2021/10/14 08:07:29;;;;;;;1.13;0.90;;;12.60;66.40;;;;;;5065238;28;20063;-78
2021/10/14 08:09:55;;;;;;;2.58;0.80;;;12.70;64.40;;;;;;5069177;28;20056;-78
2021/10/14 08:12:21;;;;;;;1.88;0.90;;;12.70;66.00;;;;;;5070216;28;20048;-76
2021/10/14 08:14:47;;;;;;;2.15;0.80;;;12.80;66.80;;;;;;5070663;28;20115;-83
2021/10/14 08:17:13;;;;;;;1.23;0.85;;;12.80;63.80;;;;;;5069325;28;20111;-75
2021/10/14 08:19:38;;;;;;;1.27;0.70;;;12.90;64.50;;;;;;5069427;28;20392;-76
2021/10/14 08:22:04;;;;;;;3.35;1.00;;;12.90;63.90;;;;;;5071525;28;20514;-76
2021/10/14 08:24:30;;;;;;;1.90;0.80;;;13.00;65.30;;;;;;5070688;28;20047;-76
2021/10/14 08:26:56;;;;;;;3.67;0.90;;;13.10;60.90;;;;;;5070600;28;20017;-76
2021/10/14 08:29:21;;;;;;;1.67;0.70;;;13.10;62.60;;;;;;5068978;28;20024;-76
2021/10/14 08:31:47;;;;;;;0.95;0.75;;;13.20;62.40;;;;;;5068513;28;20021;-82
2021/10/14 08:34:13;;;;;;;1.25;1.08;;;13.30;63.00;;;;;;5067701;28;20029;-77
2021/10/14 08:36:40;;;;;;;1.50;0.73;;;13.30;60.30;;;;;;5069640;28;20028;-78
2021/10/14 08:39:06;;;;;;;1.65;0.80;;;13.40;61.10;;;;;;5066238;28;20032;-78
2021/10/14 08:41:32;;;;;;;1.20;1.05;;;13.40;60.90;;;;;;5070812;28;20536;-78
2021/10/14 08:43:59;;;;;;;0.85;0.82;;;13.40;61.80;;;;;;5070256;28;20036;-77
2021/10/14 08:46:25;;;;;;;4.05;1.30;;;13.50;63.10;;;;;;5070762;28;20040;-78
2021/10/14 08:48:51;;;;;;;3.00;1.05;;;13.60;63.10;;;;;;5067130;28;20178;-78
2021/10/14 08:51:16;;;;;;;2.05;1.42;;;13.70;61.70;;;;;;5071063;28;20531;-77
2021/10/14 08:53:45;;;;;;;2.47;1.23;;;13.70;62.30;;;;;;5069622;28;20107;-78
2021/10/14 08:56:11;;;;;;;2.72;1.40;;;13.80;62.00;;;;;;5070776;28;20027;-78
2021/10/14 08:58:37;;;;;;;2.35;1.52;;;13.90;58.80;;;;;;5069908;28;20024;-78
2021/10/14 09:01:13;;;;;;;3.05;1.38;;;14.00;58.00;;;;;;5068377;28;20398;-79
2021/10/14 09:03:48;;;;;;;1.92;0.98;;;14.00;58.10;;;;;;5053402;28;20041;-86
2021/10/14 09:06:15;;;;;;;2.97;0.93;;;14.00;58.50;;;;;;5066844;28;20495;-76
2021/10/14 09:08:45;;;;;;;2.67;0.70;;;14.00;57.90;;;;;;5069752;28;20021;-78
2021/10/14 09:11:15;;;;;;;1.00;0.80;;;14.00;57.80;;;;;;5081938;28;20540;-78
2021/10/14 09:13:49;;;;;;;3.22;1.02;;;14.00;59.60;;;;;;5069746;28;20017;-78
2021/10/14 09:16:28;;;;;;;2.90;0.88;;;14.10;57.50;;;;;;5084265;28;20032;-78
2021/10/14 09:18:56;;;;;;;2.78;0.95;;;14.10;55.70;;;;;;5065752;28;20028;-78
2021/10/14 09:21:30;;;;;;;2.05;1.00;;;14.20;55.70;;;;;;5068888;28;20024;-78
2021/10/14 09:23:58;;;;;;;0.80;0.80;;;14.20;55.70;;;;;;5066078;28;20674;-80
2021/10/14 09:26:32;;;;;;;1.17;0.75;;;14.20;55.90;;;;;;5072531;28;20028;-79
2021/10/14 09:29:12;;;;;;;1.15;1.00;;;14.20;58.00;;;;;;5069368;28;20024;-78
2021/10/14 09:31:48;;;;;;;2.42;1.20;;;14.30;56.40;;;;;;5069172;28;20074;-77
2021/10/14 09:34:43;;;;;;;3.00;1.35;;;14.40;56.70;;;;;;5057435;28;20021;-78
2021/10/14 09:37:30;;;;;;;1.65;1.02;;;14.40;57.50;;;;;;5065564;28;20020;-77
2021/10/14 09:40:04;;;;;;;2.10;0.85;;;14.50;56.80;;;;;;5067708;28;20368;-77
2021/10/14 09:43:01;;;;;;;1.00;0.90;;;14.50;56.70;;;;;;5066696;28;20110;-77
2021/10/14 09:45:28;;;;;;;1.10;0.95;;;14.60;56.90;;;;;;5067181;28;20028;-77
2021/10/14 09:48:03;;;;;;;0.70;0.70;;;14.70;54.40;;;;;;5068183;28;20506;-77
2021/10/14 09:50:33;;;;;;;1.45;0.75;;;14.70;56.10;;;;;;5067687;28;20486;-78
2021/10/14 09:53:00;;;;;;;0.90;0.90;;;14.70;55.10;;;;;;5070975;28;20020;-77
2021/10/14 09:55:26;;;;;;;1.83;0.80;;;14.80;55.30;;;;;;5068989;28;20020;-78
2021/10/14 09:57:52;;;;;;;2.10;1.00;;;14.80;56.10;;;;;;5070897;28;20105;-77
2021/10/14 10:00:19;;;;;;;1.23;0.90;;;14.90;57.30;;;;;;5070208;28;20035;-77
2021/10/14 10:02:47;;;;;;;0.90;0.73;;;15.00;57.00;;;;;;5070818;28;20039;-77
2021/10/14 10:05:13;;;;;;;0.95;0.85;;;15.10;54.20;;;;;;5061802;28;20028;-77
2021/10/14 10:07:42;;;;;;;1.20;0.80;;;15.10;54.30;;;;;;5070752;28;20024;-77
2021/10/14 10:10:10;;;;;;;3.38;0.82;;;15.00;55.10;;;;;;5066669;28;20025;-77
2021/10/14 10:12:36;;;;;;;1.90;1.02;;;15.10;54.70;;;;;;5070332;28;20025;-77
2021/10/14 10:15:03;;;;;;;1.58;0.98;;;15.10;53.80;;;;;;5069271;28;20427;-76
2021/10/14 10:17:42;;;;;;;0.98;0.80;;;15.10;54.60;;;;;;5070528;28;20099;-77
2021/10/14 10:20:10;;;;;;;1.38;1.00;;;15.10;54.00;;;;;;5081714;28;20078;-77
2021/10/14 10:22:36;;;;;;;1.02;0.90;;;15.20;55.30;;;;;;5069517;28;20021;-77
2021/10/14 10:25:23;;;;;;;1.00;0.80;;;15.20;56.80;;;;;;5069642;28;20107;-75
2021/10/14 10:27:53;;;;;;;2.30;1.10;;;15.40;54.80;;;;;;5071234;28;20103;-84
2021/10/14 10:30:39;;;;;;;1.35;0.90;;;15.40;54.20;;;;;;5069947;28;20032;-85
2021/10/14 10:33:07;;;;;;;2.55;0.80;;;15.40;54.00;;;;;;5058874;28;20074;-76
2021/10/14 10:35:45;;;;;;;1.60;1.00;;;15.40;54.70;;;;;;5070408;28;20035;-77
2021/10/14 10:38:14;;;;;;;1.30;1.00;;;15.40;55.20;;;;;;5060301;28;20414;-78
2021/10/14 10:40:40;;;;;;;1.95;1.08;;;15.50;55.90;;;;;;5070503;28;20039;-78
2021/10/14 10:43:23;;;;;;;3.53;0.88;;;15.70;54.30;;;;;;5070242;28;20016;-75
2021/10/14 10:45:56;;;;;;;1.25;0.77;;;15.80;54.00;;;;;;5068475;28;20020;-78
2021/10/14 10:48:43;;;;;;;2.72;1.05;;;15.80;53.60;;;;;;5069112;28;20029;-76
2021/10/14 10:51:25;;;;;;;2.03;0.88;;;15.80;54.50;;;;;;5072741;28;20082;-80
2021/10/14 10:53:52;;;;;;;2.72;1.27;;;15.80;54.00;;;;;;5074046;28;20069;-81
2021/10/14 10:56:36;;;;;;;1.15;1.00;;;15.90;54.50;;;;;;5074856;28;20029;-78
2021/10/14 10:59:03;;;;;;;1.52;0.93;;;16.10;54.20;;;;;;5074027;28;20522;-78
2021/10/14 11:01:29;;;;;;;0.65;0.65;;;16.10;54.60;;;;;;5074364;28;20425;-78
2021/10/14 11:03:56;;;;;;;2.15;1.13;;;16.20;54.60;;;;;;5074205;28;20021;-75
2021/10/14 11:06:23;;;;;;;3.85;1.15;;;16.50;54.40;;;;;;5074572;28;20032;-76
2021/10/14 11:08:49;;;;;;;2.35;0.98;;;16.60;54.40;;;;;;5072677;28;20674;-75
2021/10/14 11:11:22;;;;;;;2.42;0.80;;;16.60;53.60;;;;;;5073106;28;20033;-75
2021/10/14 11:13:51;;;;;;;2.50;1.10;;;16.70;52.90;;;;;;5074003;28;20032;-74
2021/10/14 11:16:19;;;;;;;1.63;1.20;;;16.70;54.00;;;;;;5074483;28;20032;-79
2021/10/14 11:18:47;;;;;;;1.35;1.17;;;16.80;53.80;;;;;;5072379;28;20024;-85
2021/10/14 11:21:18;;;;;;;2.10;1.10;;;16.90;53.70;;;;;;5073058;28;20036;-74
2021/10/14 11:23:46;;;;;;;2.88;0.98;;;16.90;52.70;;;;;;5072979;28;20055;-74
2021/10/14 11:26:13;;;;;;;1.27;0.85;;;16.90;52.20;;;;;;5074021;28;20059;-74
2021/10/14 11:28:56;;;;;;;1.27;1.17;;;16.90;55.80;;;;;;5073475;28;20421;-74
2021/10/14 11:31:40;;;;;;;1.10;1.00;;;17.10;52.80;;;;;;5073797;28;20033;-73
2021/10/14 11:34:15;;;;;;;1.83;1.10;;;17.20;53.10;;;;;;5073499;28;20020;-74
2021/10/14 11:36:58;;;;;;;2.08;1.02;;;17.20;52.00;;;;;;5071785;28;20020;-74
2021/10/14 11:39:51;;;;;;;2.47;0.82;;;17.20;52.50;;;;;;5072905;28;20037;-74
2021/10/14 11:42:21;;;;;;;1.13;0.90;;;17.10;54.00;;;;;;5063752;28;20036;-74
2021/10/14 11:44:51;;;;;;;1.73;1.13;;;17.20;52.20;;;;;;5068834;28;20071;-74
2021/10/14 11:47:21;;;;;;;1.30;0.82;;;17.10;52.50;;;;;;5071263;28;21174;-74
2021/10/14 11:50:01;;;;;;;3.85;0.80;;;16.40;53.80;;;;;;5072857;28;20039;-75
2021/10/14 11:52:27;;;;;;;1.25;0.90;;;15.90;55.00;;;;;;5073496;28;20143;-74
2021/10/14 11:55:07;;;;;;;1.58;0.90;;;15.60;57.10;;;;;;5072915;28;20124;-75
2021/10/14 11:57:33;;;;;;;1.52;0.90;;;15.50;57.60;;;;;;5073769;28;20077;-78
2021/10/14 11:59:59;;;;;;;1.80;0.82;;;15.30;57.40;;;;;;5072557;28;20048;-84
2021/10/14 12:02:27;;;;;;;1.35;0.70;;;15.40;58.00;;;;;;5068610;28;20126;-78
2021/10/14 12:04:54;;;;;;;2.63;0.90;;;17.40;55.70;;;;;;5069467;28;20051;-78
2021/10/14 12:07:27;;;;;;;1.85;0.80;;;19.80;51.40;;;;;;5067437;28;20085;-79
2021/10/14 12:09:55;;;;;;;1.73;0.80;;;20.10;51.20;;;;;;5064941;28;20111;-79
2021/10/14 12:12:22;;;;;;;1.58;0.80;;;21.00;50.10;;;;;;5071225;28;20029;-81
2021/10/14 12:15:02;;;;;;;0.80;0.68;;;22.40;46.80;;;;;;5071170;28;20029;-78
2021/10/14 12:17:40;;;;;;;0.93;0.52;;;22.30;46.10;;;;;;5071685;28;20024;-83
2021/10/14 12:20:15;;;;;;;0.93;0.80;;;22.00;46.90;;;;;;5069033;28;20526;-80
2021/10/14 12:22:43;;;;;;;1.25;0.90;;;21.90;47.90;;;;;;5072579;28;20059;-80
2021/10/14 12:25:13;;;;;;;2.03;1.02;;;21.90;47.20;;;;;;5065647;28;20041;-79
2021/10/14 12:27:45;;;;;;;0.82;0.80;;;21.80;46.90;;;;;;5067630;28;20383;-78
2021/10/14 12:30:17;;;;;;;1.27;0.80;;;22.10;46.80;;;;;;5068120;28;20016;-80
2021/10/14 12:32:43;;;;;;;;;;;22.10;46.40;;;;;;5072611;28;20125;-79
2021/10/14 12:35:08;;;;;;;3.92;0.82;;;21.40;48.00;;;;;;5071527;28;19909;-79
2021/10/14 12:37:34;;;;;;;1.73;0.85;;;21.50;46.90;;;;;;5069247;28;20031;-79
2021/10/14 12:40:20;;;;;;;2.15;0.90;;;21.30;47.00;;;;;;5069862;28;20040;-78
2021/10/14 12:46:17;;;;;;;1.75;0.80;;;22.00;47.10;;;;;;5070119;28;20101;-77
2021/10/14 12:51:19;;;;;;;2.80;1.02;;;22.00;47.30;;;;;;5069732;28;20119;-78
2021/10/14 12:53:46;;;;;;;1.90;0.95;;;21.70;47.40;;;;;;5071634;28;20031;-78
2021/10/14 12:56:18;;;;;;;2.22;1.00;;;23.20;46.20;;;;;;5072370;28;20119;-81
2021/10/14 12:58:45;;;;;;;1.20;0.85;;;23.10;45.70;;;;;;5071646;28;20097;-77